createdAt,value
2018-12-31T00:01:10.833Z,100476.20
2018-12-31T00:03:41.220Z,100475.46
2018-12-31T00:06:11.565Z,100485.22
2018-12-31T00:08:41.908Z,100477.10
2018-12-31T00:11:12.314Z,100479.75
2018-12-31T00:13:42.652Z,100477.50
2018-12-31T00:16:12.992Z,100474.45
2018-12-31T00:18:43.295Z,100476.84
2018-12-31T00:21:13.680Z,100473.52
2018-12-31T00:23:44.096Z,100472.42
2018-12-31T00:26:14.440Z,100473.72
2018-12-31T00:28:44.783Z,100471.52
2018-12-31T00:31:15.139Z,100480.75
2018-12-31T00:33:45.446Z,100480.62
2018-12-31T00:36:15.829Z,100469.91
2018-12-31T00:38:46.226Z,100473.98
2018-12-31T00:41:16.651Z,100467.87
2018-12-31T00:43:47.023Z,100476.77
2018-12-31T00:46:17.491Z,100471.16
2018-12-31T00:48:47.857Z,100473.25
2018-12-31T00:51:18.246Z,100474.25
2018-12-31T00:53:48.589Z,100470.95
2018-12-31T00:56:18.907Z,100473.25
2018-12-31T00:58:49.247Z,100470.00
2018-12-31T01:01:19.588Z,100472.69
2018-12-31T01:03:49.943Z,100473.59
2018-12-31T01:06:20.273Z,100467.27
2018-12-31T01:08:50.689Z,100466.23
2018-12-31T01:11:21.072Z,100460.45
2018-12-31T01:13:51.456Z,100461.70
2018-12-31T01:16:21.754Z,100455.68
2018-12-31T01:18:52.175Z,100454.37
2018-12-31T01:21:22.484Z,100450.43
2018-12-31T01:23:52.830Z,100447.75
2018-12-31T01:26:23.168Z,100445.36
2018-12-31T01:28:53.554Z,100445.05
2018-12-31T01:31:23.853Z,100446.48
2018-12-31T01:33:54.244Z,100443.23
2018-12-31T01:36:24.662Z,100443.02
2018-12-31T01:38:55.081Z,100438.94
2018-12-31T01:41:25.470Z,100439.95
2018-12-31T01:43:55.803Z,100431.89
2018-12-31T01:46:26.187Z,100426.93
2018-12-31T01:48:56.539Z,100429.92
2018-12-31T01:51:26.958Z,100426.89
2018-12-31T01:53:57.367Z,100427.29
2018-12-31T01:56:27.754Z,100422.20
2018-12-31T01:58:58.090Z,100421.47
2018-12-31T02:01:28.393Z,100422.91
2018-12-31T02:03:58.736Z,100422.08
2018-12-31T02:06:29.031Z,100414.02
2018-12-31T02:08:59.373Z,100411.33
2018-12-31T02:11:29.722Z,100415.06
2018-12-31T02:14:00.137Z,100410.67
2018-12-31T02:16:30.514Z,100281.66
2018-12-31T02:19:00.862Z,100406.42
2018-12-31T02:21:31.205Z,100409.77
2018-12-31T02:24:01.576Z,100406.12
2018-12-31T02:26:31.884Z,100413.11
2018-12-31T02:29:02.226Z,100412.93
2018-12-31T02:31:32.607Z,100411.41
2018-12-31T02:34:02.985Z,100408.99
2018-12-31T02:36:33.406Z,100407.78
2018-12-31T02:39:04.331Z,100400.20
2018-12-31T02:41:34.702Z,100398.58
2018-12-31T02:44:05.156Z,100400.58
2018-12-31T02:46:35.530Z,100399.77
2018-12-31T02:49:05.883Z,100402.70
2018-12-31T02:51:36.299Z,100401.62
2018-12-31T02:54:06.682Z,100402.66
2018-12-31T02:56:37.061Z,100401.57
2018-12-31T02:59:07.403Z,100401.91
2018-12-31T03:01:37.780Z,100406.03
2018-12-31T03:04:08.163Z,100401.31
2018-12-31T03:06:38.543Z,100401.23
2018-12-31T03:09:09.247Z,100404.70
2018-12-31T03:11:39.554Z,100400.53
2018-12-31T03:14:09.922Z,100395.85
2018-12-31T03:16:40.268Z,100398.89
2018-12-31T03:19:10.645Z,100398.28
2018-12-31T03:21:41.017Z,100400.57
2018-12-31T03:24:11.435Z,100400.13
2018-12-31T03:26:41.858Z,100397.14
2018-12-31T03:29:12.274Z,100398.22
2018-12-31T03:31:42.669Z,100401.45
2018-12-31T03:34:13.059Z,100402.00
2018-12-31T03:36:43.374Z,100403.59
2018-12-31T03:39:13.667Z,100406.97
2018-12-31T03:41:44.077Z,100405.48
2018-12-31T03:44:14.374Z,100409.38
2018-12-31T03:46:44.757Z,100410.23
2018-12-31T03:49:15.145Z,100414.44
2018-12-31T03:51:45.484Z,100411.92
2018-12-31T03:54:15.799Z,100418.32
2018-12-31T03:56:46.190Z,100416.63
2018-12-31T03:59:16.600Z,100423.34
2018-12-31T04:01:46.950Z,100426.55
2018-12-31T04:04:17.286Z,100422.69
2018-12-31T04:06:47.658Z,100423.72
2018-12-31T04:09:18.073Z,100427.09
2018-12-31T04:11:48.417Z,100435.66
2018-12-31T04:14:18.838Z,100430.77
2018-12-31T04:16:49.170Z,100425.47
2018-12-31T04:19:19.565Z,100429.98
2018-12-31T04:21:49.876Z,100425.80
2018-12-31T04:24:20.217Z,100426.15
2018-12-31T04:26:50.636Z,100434.69
2018-12-31T04:29:20.975Z,100435.55
2018-12-31T04:31:51.385Z,100435.20
2018-12-31T04:34:21.755Z,100441.25
2018-12-31T04:36:52.140Z,100441.13
2018-12-31T04:39:22.534Z,100443.98
2018-12-31T04:41:52.880Z,100447.21
2018-12-31T04:44:23.187Z,100452.41
2018-12-31T04:46:53.490Z,100452.27
2018-12-31T04:49:23.941Z,100451.92
2018-12-31T04:51:54.324Z,100456.80
2018-12-31T04:54:24.700Z,100457.83
2018-12-31T04:56:55.085Z,100456.48
2018-12-31T04:59:25.519Z,100470.77
2018-12-31T05:01:55.851Z,100466.23
2018-12-31T05:04:26.226Z,100469.92
2018-12-31T05:06:56.611Z,100474.94
2018-12-31T05:09:26.947Z,100476.94
2018-12-31T05:11:57.367Z,100478.80
2018-12-31T05:14:27.778Z,100483.34
2018-12-31T05:16:58.157Z,100474.13
2018-12-31T05:19:28.500Z,100482.02
2018-12-31T05:21:58.871Z,100491.05
2018-12-31T05:24:29.250Z,100491.05
2018-12-31T05:26:59.594Z,100487.56
2018-12-31T05:29:29.976Z,100494.77
2018-12-31T05:32:00.351Z,100495.77
2018-12-31T05:34:30.692Z,100488.08
2018-12-31T05:37:01.001Z,100488.77
2018-12-31T05:39:31.345Z,100488.77
2018-12-31T05:42:01.696Z,100489.80
2018-12-31T05:44:32.082Z,100499.19
2018-12-31T05:47:02.379Z,100500.86
2018-12-31T05:49:32.758Z,100498.03
2018-12-31T05:52:03.103Z,100506.75
2018-12-31T05:54:33.415Z,100504.59
2018-12-31T05:57:03.766Z,100504.59
2018-12-31T05:59:34.110Z,100500.73
2018-12-31T06:02:04.535Z,100508.13
2018-12-31T06:04:34.915Z,100505.61
2018-12-31T06:07:05.331Z,100504.95
2018-12-31T06:09:35.701Z,100504.95
2018-12-31T06:12:06.082Z,100503.30
2018-12-31T06:14:36.423Z,100506.80
2018-12-31T06:17:06.730Z,100496.59
2018-12-31T06:19:37.087Z,100507.63
2018-12-31T06:22:07.430Z,100506.80
2018-12-31T06:24:37.772Z,100510.98
2018-12-31T06:27:08.115Z,100514.69
2018-12-31T06:29:38.524Z,100516.72
2018-12-31T06:32:08.864Z,100517.03
2018-12-31T06:34:39.199Z,100518.20
2018-12-31T06:37:09.547Z,100517.02
2018-12-31T06:39:39.887Z,100509.32
2018-12-31T06:42:10.253Z,100514.16
2018-12-31T06:44:40.572Z,100518.69
2018-12-31T06:47:10.949Z,100515.34
2018-12-31T06:49:41.278Z,100505.95
2018-12-31T06:52:11.623Z,100512.12
2018-12-31T06:54:41.960Z,100521.33
2018-12-31T06:57:12.368Z,100517.08
2018-12-31T06:59:42.746Z,100516.23
2018-12-31T07:02:13.128Z,100518.20
2018-12-31T07:04:43.508Z,100518.82
2018-12-31T07:07:13.883Z,100517.00
2018-12-31T07:09:44.271Z,100517.00
2018-12-31T07:12:14.692Z,100519.61
2018-12-31T07:14:46.386Z,100522.02
2018-12-31T07:17:16.723Z,100523.81
2018-12-31T07:19:47.118Z,100524.41
2018-12-31T07:22:17.430Z,100523.08
2018-12-31T07:24:47.732Z,100525.17
2018-12-31T07:27:18.089Z,100517.83
2018-12-31T07:29:48.390Z,100518.27
2018-12-31T07:32:18.768Z,100520.83
2018-12-31T07:34:49.145Z,100520.05
2018-12-31T07:37:19.538Z,100516.23
2018-12-31T07:39:49.882Z,100513.77
2018-12-31T07:42:20.275Z,100518.05
2018-12-31T07:44:50.617Z,100518.37
2018-12-31T07:47:20.963Z,100511.37
2018-12-31T07:49:51.266Z,100514.45
2018-12-31T07:52:21.651Z,100513.36
2018-12-31T07:54:52.038Z,100514.27
2018-12-31T07:57:22.415Z,100515.17
2018-12-31T07:59:52.808Z,100512.97
2018-12-31T08:02:24.265Z,100520.41
2018-12-31T08:04:54.732Z,100521.77
2018-12-31T08:07:25.078Z,100524.41
2018-12-31T08:09:55.454Z,100519.27
2018-12-31T08:12:25.870Z,100517.42
2018-12-31T08:14:56.239Z,100515.73
2018-12-31T08:17:26.655Z,100517.20
2018-12-31T08:19:57.098Z,100514.38
2018-12-31T08:22:27.477Z,100519.59
2018-12-31T08:24:57.804Z,100511.18
2018-12-31T08:27:28.147Z,100513.89
2018-12-31T08:29:58.527Z,100521.05
2018-12-31T08:32:28.905Z,100519.91
2018-12-31T08:34:59.284Z,100520.08
2018-12-31T08:37:29.755Z,100518.84
2018-12-31T08:40:00.267Z,100521.23
2018-12-31T08:42:30.545Z,100526.54
2018-12-31T08:45:00.977Z,100514.52
2018-12-31T08:47:31.367Z,100518.34
2018-12-31T08:50:03.149Z,100435.71
2018-12-31T08:52:33.842Z,100507.78
2018-12-31T08:55:04.328Z,100509.05
2018-12-31T08:57:34.723Z,100500.69
2018-12-31T09:00:05.284Z,100502.63
2018-12-31T09:02:35.661Z,100500.80
2018-12-31T09:05:06.413Z,100495.10
2018-12-31T09:07:36.796Z,100493.12
2018-12-31T09:10:07.289Z,100490.50
2018-12-31T09:12:37.633Z,100488.47
2018-12-31T09:15:08.115Z,100483.81
2018-12-31T09:17:38.447Z,100483.52
2018-12-31T09:20:09.790Z,100477.86
2018-12-31T09:22:40.169Z,100476.59
2018-12-31T09:25:10.568Z,100474.78
2018-12-31T09:27:40.903Z,100476.52
2018-12-31T09:30:11.256Z,100476.83
2018-12-31T09:32:41.559Z,100470.70
2018-12-31T09:35:11.903Z,100476.52
2018-12-31T09:37:42.254Z,100471.61
2018-12-31T09:40:12.595Z,100475.66
2018-12-31T09:42:42.966Z,100475.47
2018-12-31T09:45:13.355Z,100471.44
2018-12-31T09:47:43.697Z,100470.69
2018-12-31T09:50:14.001Z,100465.89
2018-12-31T09:52:44.381Z,100463.98
2018-12-31T09:55:14.721Z,100465.88
2018-12-31T09:57:45.075Z,100460.49
2018-12-31T10:00:15.450Z,100458.77
2018-12-31T10:02:45.830Z,100456.30
2018-12-31T10:05:16.202Z,100454.98
2018-12-31T10:07:46.580Z,100453.94
2018-12-31T10:10:16.953Z,100454.80
2018-12-31T10:12:47.358Z,100442.52
2018-12-31T10:15:17.708Z,100446.72
2018-12-31T10:17:48.085Z,100443.04
2018-12-31T10:20:18.530Z,100438.09
2018-12-31T10:22:48.918Z,100440.01
2018-12-31T10:25:19.269Z,100434.98
2018-12-31T10:27:49.582Z,100428.66
2018-12-31T10:30:19.961Z,100431.62
2018-12-31T10:32:50.296Z,100431.02
2018-12-31T10:35:20.651Z,100422.97
2018-12-31T10:37:50.996Z,100416.83
2018-12-31T10:40:21.299Z,100418.77
2018-12-31T10:42:51.671Z,100411.55
2018-12-31T10:45:22.017Z,100408.06
2018-12-31T10:47:52.368Z,100407.20
2018-12-31T10:50:22.713Z,100402.19
2018-12-31T10:52:53.108Z,100403.42
2018-12-31T10:55:23.567Z,100398.95
2018-12-31T10:57:53.947Z,100400.59
2018-12-31T11:00:24.263Z,100401.07
2018-12-31T11:02:54.604Z,100398.70
2018-12-31T11:05:24.944Z,100395.65
2018-12-31T11:07:55.329Z,100398.70
2018-12-31T11:10:25.692Z,100394.16
2018-12-31T11:12:56.098Z,100392.48
2018-12-31T11:15:26.468Z,100395.56
2018-12-31T11:17:56.849Z,100393.36
2018-12-31T11:20:27.189Z,100394.19
2018-12-31T11:22:57.667Z,100389.23
2018-12-31T11:25:28.030Z,100380.59
2018-12-31T11:27:58.367Z,100380.97
2018-12-31T11:30:28.716Z,100384.38
2018-12-31T11:32:59.029Z,100382.17
2018-12-31T11:35:29.417Z,100392.56
2018-12-31T11:37:59.745Z,100378.88
2018-12-31T11:40:30.053Z,100379.23
2018-12-31T11:43:00.437Z,100379.43
2018-12-31T11:45:30.863Z,100380.58
2018-12-31T11:48:01.242Z,100384.21
2018-12-31T11:50:31.619Z,100385.36
2018-12-31T11:53:02.015Z,100394.33
2018-12-31T11:55:32.436Z,100385.70
2018-12-31T11:58:02.820Z,100390.81
2018-12-31T12:00:33.254Z,100383.34
2018-12-31T12:03:03.681Z,100389.37
2018-12-31T12:05:34.016Z,100386.14
2018-12-31T12:08:04.395Z,100382.61
2018-12-31T12:10:34.709Z,100387.06
2018-12-31T12:13:05.063Z,100389.69
2018-12-31T12:15:35.371Z,100388.63
2018-12-31T12:18:05.717Z,100382.70
2018-12-31T12:20:36.054Z,100398.20
2018-12-31T12:23:06.432Z,100395.20
2018-12-31T12:25:36.849Z,100393.31
2018-12-31T12:28:07.253Z,100391.23
2018-12-31T12:30:37.591Z,100392.48
2018-12-31T12:33:08.002Z,100403.30
2018-12-31T12:35:38.346Z,100406.72
2018-12-31T12:38:08.729Z,100404.02
2018-12-31T12:40:39.329Z,100407.78
2018-12-31T12:43:09.698Z,100406.63
2018-12-31T12:45:40.075Z,100407.56
2018-12-31T12:48:10.392Z,100405.16
2018-12-31T12:50:40.780Z,100414.41
2018-12-31T12:53:11.107Z,100410.78
2018-12-31T12:55:41.528Z,100411.70
2018-12-31T12:58:11.875Z,100413.48
2018-12-31T13:00:42.289Z,100420.44
2018-12-31T13:03:12.632Z,100421.69
2018-12-31T13:05:42.971Z,100414.64
2018-12-31T13:08:13.281Z,100416.19
2018-12-31T13:10:43.651Z,100412.86
2018-12-31T13:13:14.031Z,100412.36
2018-12-31T13:15:44.337Z,100413.70
2018-12-31T13:18:14.679Z,100409.44
2018-12-31T13:20:45.040Z,100411.20
2018-12-31T13:23:15.343Z,100412.95
2018-12-31T13:25:45.691Z,100407.75
2018-12-31T13:28:16.088Z,100414.20
2018-12-31T13:30:46.541Z,100415.16
2018-12-31T13:33:16.919Z,100412.12
2018-12-31T13:35:47.346Z,100417.95
2018-12-31T13:38:17.763Z,100420.56
2018-12-31T13:40:48.103Z,100417.04
2018-12-31T13:43:18.485Z,100411.01
2018-12-31T13:45:48.840Z,100409.86
2018-12-31T13:48:19.371Z,100415.98
2018-12-31T13:50:49.708Z,100414.54
2018-12-31T13:53:20.066Z,100413.48
2018-12-31T13:55:50.421Z,100414.70
2018-12-31T13:58:20.907Z,100411.70
2018-12-31T14:00:51.301Z,100413.15
2018-12-31T14:03:21.643Z,100409.28
2018-12-31T14:05:51.992Z,100413.95
2018-12-31T14:08:22.340Z,100411.74
2018-12-31T14:10:52.686Z,100414.52
2018-12-31T14:13:23.042Z,100417.47
2018-12-31T14:15:53.437Z,100412.00
2018-12-31T14:18:23.820Z,100416.93
2018-12-31T14:20:54.234Z,100419.44
2018-12-31T14:23:24.713Z,100418.74
2018-12-31T14:25:55.131Z,100422.23
2018-12-31T14:28:25.543Z,100420.59
2018-12-31T14:30:55.929Z,100419.73
2018-12-31T14:33:26.314Z,100426.22
2018-12-31T14:35:56.734Z,100425.59
2018-12-31T14:38:27.074Z,100429.07
2018-12-31T14:40:57.500Z,100427.50
2018-12-31T14:43:27.904Z,100423.91
2018-12-31T14:45:58.284Z,100431.13
2018-12-31T14:48:28.640Z,100429.92
2018-12-31T14:50:58.982Z,100434.38
2018-12-31T14:53:29.283Z,100431.60
2018-12-31T14:55:59.802Z,100432.19
2018-12-31T14:58:30.164Z,100444.39
2018-12-31T15:01:00.545Z,100447.86
2018-12-31T15:03:30.960Z,100449.61
2018-12-31T15:06:01.305Z,100450.31
2018-12-31T15:08:31.695Z,100453.26
2018-12-31T15:11:02.008Z,100453.14
2018-12-31T15:13:32.389Z,100460.52
2018-12-31T15:16:02.694Z,100454.03
2018-12-31T15:18:33.216Z,100463.33
2018-12-31T15:21:03.556Z,100458.34
2018-12-31T15:23:33.965Z,100470.47
2018-12-31T15:26:04.344Z,100469.48
2018-12-31T15:28:34.732Z,100478.80
2018-12-31T15:31:05.147Z,100481.02
2018-12-31T15:33:35.642Z,100474.99
2018-12-31T15:36:06.027Z,100482.13
2018-12-31T15:38:36.367Z,100483.83
2018-12-31T15:41:07.116Z,100485.39
2018-12-31T15:43:37.457Z,100486.27
2018-12-31T15:46:07.809Z,100491.02
2018-12-31T15:48:38.107Z,100490.03
2018-12-31T15:51:08.445Z,100491.25
2018-12-31T15:53:38.833Z,100493.17
2018-12-31T15:56:09.158Z,100500.60
2018-12-31T15:58:39.510Z,100510.55
2018-12-31T16:01:09.852Z,100513.94
2018-12-31T16:03:40.574Z,100514.45
2018-12-31T16:06:10.954Z,100516.80
2018-12-31T16:08:41.309Z,100526.88
2018-12-31T16:11:11.660Z,100524.05
2018-12-31T16:13:42.013Z,100529.62
2018-12-31T16:16:12.392Z,100529.15
2018-12-31T16:18:42.728Z,100533.53
2018-12-31T16:21:13.032Z,100539.61
2018-12-31T16:23:43.377Z,100542.12
2018-12-31T16:26:13.780Z,100546.86
2018-12-31T16:28:44.129Z,100555.58
2018-12-31T16:31:14.501Z,100554.11
2018-12-31T16:33:44.894Z,100554.28
2018-12-31T16:36:15.262Z,100560.02
2018-12-31T16:38:45.810Z,100552.81
2018-12-31T16:41:16.197Z,100562.45
2018-12-31T16:43:46.566Z,100561.10
2018-12-31T16:46:16.891Z,100563.66
2018-12-31T16:48:47.270Z,100567.36
2018-12-31T16:51:17.614Z,100571.21
2018-12-31T16:53:47.933Z,100571.56
2018-12-31T16:56:18.345Z,100569.35
2018-12-31T16:58:48.744Z,100580.30
2018-12-31T17:01:19.381Z,100579.80
2018-12-31T17:03:49.721Z,100587.72
2018-12-31T17:06:20.096Z,100579.59
2018-12-31T17:08:50.474Z,100586.75
2018-12-31T17:11:20.813Z,100587.39
2018-12-31T17:13:54.204Z,100585.97
2018-12-31T17:16:24.539Z,100586.97
2018-12-31T17:18:54.899Z,100592.53
2018-12-31T17:21:25.247Z,100593.56
2018-12-31T17:23:55.584Z,100590.18
2018-12-31T17:26:26.056Z,100583.45
2018-12-31T17:28:56.472Z,100585.66
2018-12-31T17:31:26.819Z,100586.91
2018-12-31T17:33:57.203Z,100591.98
2018-12-31T17:36:27.765Z,100591.95
2018-12-31T17:38:58.098Z,100596.30
2018-12-31T17:41:28.527Z,100602.70
2018-12-31T17:43:58.901Z,100610.27
2018-12-31T17:46:29.283Z,100608.58
2018-12-31T17:48:59.659Z,100616.51
2018-12-31T17:51:30.007Z,100619.89
2018-12-31T17:54:00.388Z,100620.72
2018-12-31T17:56:30.751Z,100628.00
2018-12-31T17:59:01.269Z,100626.00
2018-12-31T18:01:31.648Z,100635.41
2018-12-31T18:04:01.995Z,100632.41
2018-12-31T18:06:32.367Z,100636.10
2018-12-31T18:09:02.832Z,100643.34
2018-12-31T18:11:33.297Z,100643.86
2018-12-31T18:14:03.715Z,100647.55
2018-12-31T18:16:34.010Z,100647.92
2018-12-31T18:19:04.455Z,100650.79
2018-12-31T18:21:34.939Z,100657.17
2018-12-31T18:24:05.284Z,100651.09
2018-12-31T18:26:35.637Z,100659.86
2018-12-31T18:29:06.020Z,100656.03
2018-12-31T18:31:36.388Z,100658.89
2018-12-31T18:34:06.931Z,100659.72
2018-12-31T18:36:37.311Z,100662.41
2018-12-31T18:39:08.816Z,100667.33
2018-12-31T18:41:39.209Z,100669.16
2018-12-31T18:44:09.544Z,100665.16
2018-12-31T18:46:39.912Z,100668.53
2018-12-31T18:49:10.225Z,100670.05
2018-12-31T18:51:40.613Z,100664.19
2018-12-31T18:54:10.948Z,100667.16
2018-12-31T18:56:41.644Z,100671.73
2018-12-31T18:59:12.038Z,100667.22
2018-12-31T19:01:42.369Z,100670.94
2018-12-31T19:04:12.720Z,100667.84
2018-12-31T19:06:43.055Z,100677.91
2018-12-31T19:09:13.400Z,100669.36
2018-12-31T19:11:43.792Z,100674.97
2018-12-31T19:14:14.145Z,100676.28
2018-12-31T19:16:44.564Z,100674.77
2018-12-31T19:19:14.953Z,100674.25
2018-12-31T19:21:45.264Z,100671.56
2018-12-31T19:24:15.620Z,100672.77
2018-12-31T19:26:45.965Z,100676.28
2018-12-31T19:29:16.383Z,100676.63
2018-12-31T19:31:47.102Z,100683.34
2018-12-31T19:34:17.488Z,100687.90
2018-12-31T19:36:47.854Z,100688.92
2018-12-31T19:39:18.275Z,100688.03
2018-12-31T19:41:48.608Z,100691.41
2018-12-31T19:44:19.027Z,100688.41
2018-12-31T19:46:49.369Z,100692.44
2018-12-31T19:49:19.747Z,100688.29
2018-12-31T19:51:50.105Z,100684.75
2018-12-31T19:54:20.406Z,100687.06
2018-12-31T19:56:50.748Z,100687.89
2018-12-31T19:59:21.093Z,100689.58
2018-12-31T20:01:51.466Z,100689.75
2018-12-31T20:04:21.811Z,100687.75
2018-12-31T20:07:01.060Z,100688.44
2018-12-31T20:09:25.518Z,100699.84
2018-12-31T20:11:55.920Z,100698.19
2018-12-31T20:14:26.322Z,100692.13
2018-12-31T20:16:56.650Z,100696.16
2018-12-31T20:19:27.026Z,100696.16
2018-12-31T20:21:57.445Z,100693.47
2018-12-31T20:24:27.836Z,100689.75
2018-12-31T20:26:58.216Z,100695.30
2018-12-31T20:29:28.561Z,100693.47
2018-12-31T20:31:58.922Z,100696.84
2018-12-31T20:34:29.259Z,100699.16
2018-12-31T20:36:59.670Z,100696.47
2018-12-31T20:39:29.986Z,100695.13
2018-12-31T20:42:00.440Z,100699.16
2018-12-31T20:44:30.789Z,100697.83
2018-12-31T20:47:01.208Z,100698.13
2018-12-31T20:49:31.539Z,100702.16
2018-12-31T20:52:01.952Z,100700.36
2018-12-31T20:54:32.328Z,100700.36
2018-12-31T20:57:02.703Z,100708.59
2018-12-31T20:59:33.075Z,100698.89
2018-12-31T21:02:03.530Z,100697.20
2018-12-31T21:04:33.876Z,100697.20
2018-12-31T21:07:05.454Z,100592.30
2018-12-31T21:09:35.851Z,100706.30
2018-12-31T21:12:06.196Z,100710.33
2018-12-31T21:14:36.615Z,100709.16
2018-12-31T21:17:06.917Z,100712.02
2018-12-31T21:19:37.536Z,100703.98
2018-12-31T21:22:07.875Z,100703.98
2018-12-31T21:24:38.228Z,100721.42
2018-12-31T21:27:08.569Z,100709.33
2018-12-31T21:29:38.911Z,100716.56
2018-12-31T21:32:09.250Z,100715.55
2018-12-31T21:34:41.290Z,100715.75
2018-12-31T21:37:12.005Z,100718.44
2018-12-31T21:39:42.408Z,100721.45
2018-12-31T21:42:12.724Z,100717.09
2018-12-31T21:44:43.073Z,100715.41
2018-12-31T21:47:13.427Z,100713.75
2018-12-31T21:49:43.808Z,100717.95
2018-12-31T21:52:14.184Z,100717.95
2018-12-31T21:54:44.745Z,100726.33
2018-12-31T21:57:15.110Z,100723.49
2018-12-31T21:59:45.534Z,100732.90
2018-12-31T22:02:15.982Z,100736.27
2018-12-31T22:04:46.324Z,100732.92
2018-12-31T22:07:16.673Z,100733.59
2018-12-31T22:09:49.781Z,100733.59
2018-12-31T22:12:20.137Z,100732.10
2018-12-31T22:14:50.450Z,100733.47
2018-12-31T22:17:20.788Z,100728.64
2018-12-31T22:19:51.193Z,100731.14
2018-12-31T22:22:21.511Z,100733.48
2018-12-31T22:24:51.890Z,100741.91
2018-12-31T22:27:22.273Z,100740.72
2018-12-31T22:29:53.008Z,100738.04
2018-12-31T22:32:23.347Z,100736.02
2018-12-31T22:34:53.694Z,100738.72
2018-12-31T22:37:24.033Z,100736.38
2018-12-31T22:39:54.337Z,100733.03
2018-12-31T22:42:24.728Z,100734.03
2018-12-31T22:44:55.063Z,100734.86
2018-12-31T22:47:25.481Z,100743.94
2018-12-31T22:49:55.855Z,100732.84
2018-12-31T22:52:26.240Z,100737.08
2018-12-31T22:54:56.633Z,100739.95
2018-12-31T22:57:26.977Z,100735.41
2018-12-31T22:59:57.365Z,100729.89
2018-12-31T23:02:27.781Z,100735.42
2018-12-31T23:04:58.200Z,100734.44
2018-12-31T23:07:28.619Z,100733.25
2018-12-31T23:09:58.960Z,100735.27
2018-12-31T23:12:29.318Z,100734.61
2018-12-31T23:14:59.732Z,100727.41
2018-12-31T23:17:30.041Z,100727.41
2018-12-31T23:20:00.389Z,100745.87
2018-12-31T23:22:30.729Z,100741.36
2018-12-31T23:25:01.115Z,100745.59
2018-12-31T23:27:31.759Z,100745.59
2018-12-31T23:30:02.140Z,100747.61
2018-12-31T23:32:32.552Z,100747.27
2018-12-31T23:35:02.979Z,100740.91
2018-12-31T23:37:33.283Z,100742.11
2018-12-31T23:40:03.920Z,100735.88
2018-12-31T23:42:34.354Z,100742.78
2018-12-31T23:45:04.814Z,100742.78
2018-12-31T23:47:35.156Z,100741.77
2018-12-31T23:50:06.148Z,100750.67
2018-12-31T23:52:36.533Z,100746.96
2018-12-31T23:55:06.992Z,100746.13
2018-12-31T23:57:37.345Z,100755.84
